createdAt,value
2023-03-26T00:00:55.817Z,14.07
2023-03-26T00:03:26.047Z,17.47
2023-03-26T00:06:04.179Z,15.47
2023-03-26T00:08:32.449Z,13.47
2023-03-26T00:11:01.212Z,13.20
2023-03-26T00:13:29.760Z,13.53
2023-03-26T00:15:58.214Z,13.57
2023-03-26T00:18:30.778Z,11.83
2023-03-26T00:20:59.174Z,18.93
2023-03-26T00:23:28.328Z,13.33
2023-03-26T00:25:56.714Z,10.83
2023-03-26T00:28:26.463Z,9.90
2023-03-26T00:30:59.804Z,13.30
2023-03-26T00:33:29.511Z,16.83
2023-03-26T00:35:58.857Z,16.87
2023-03-26T00:38:27.829Z,17.07
2023-03-26T00:40:56.643Z,24.33
2023-03-26T00:43:26.537Z,11.47
2023-03-26T00:45:56.394Z,14.30
2023-03-26T00:48:37.885Z,20.07
2023-03-26T00:51:15.468Z,17.77
2023-03-26T00:53:43.898Z,12.87
2023-03-26T00:56:12.247Z,17.87
2023-03-26T00:58:40.713Z,14.23
2023-03-26T01:01:10.059Z,15.73
2023-03-26T01:03:39.289Z,18.40
2023-03-26T01:06:09.043Z,14.87
2023-03-26T01:08:39.865Z,11.70
2023-03-26T01:11:14.372Z,8.90
2023-03-26T01:13:43.821Z,13.60
2023-03-26T01:16:20.529Z,13.83
2023-03-26T01:18:49.469Z,10.27
2023-03-26T01:21:22.772Z,16.30
2023-03-26T01:23:53.049Z,9.70
2023-03-26T01:26:28.724Z,16.57
2023-03-26T01:28:58.741Z,14.93
2023-03-26T01:31:30.927Z,20.47
2023-03-26T01:34:03.811Z,12.30
2023-03-26T01:36:36.571Z,13.00
2023-03-26T01:39:09.686Z,15.40
2023-03-26T01:41:44.047Z,13.50
2023-03-26T01:44:13.821Z,9.70
2023-03-26T01:46:42.584Z,10.07
2023-03-26T01:49:13.384Z,10.93
2023-03-26T01:51:43.039Z,12.80
2023-03-26T01:54:14.887Z,12.73
2023-03-26T01:56:49.341Z,10.50
2023-03-26T01:59:24.091Z,15.60
2023-03-26T02:01:54.901Z,9.33
2023-03-26T02:04:26.533Z,10.50
2023-03-26T02:07:02.062Z,10.27
2023-03-26T02:09:32.171Z,17.10
2023-03-26T02:12:03.617Z,10.67
2023-03-26T02:14:32.248Z,7.63
2023-03-26T02:17:01.130Z,11.13
2023-03-26T02:19:29.835Z,16.90
2023-03-26T02:21:59.983Z,18.70
2023-03-26T02:24:28.392Z,8.47
2023-03-26T02:26:58.116Z,10.90
2023-03-26T02:29:27.860Z,22.27
2023-03-26T02:31:56.283Z,11.70
2023-03-26T02:34:24.599Z,7.80
2023-03-26T02:36:53.015Z,21.67
2023-03-26T02:39:21.394Z,12.80
2023-03-26T02:41:49.694Z,11.53
2023-03-26T02:44:17.952Z,14.43
2023-03-26T02:46:47.548Z,15.50
2023-03-26T02:49:15.883Z,12.90
2023-03-26T02:51:44.174Z,14.47
2023-03-26T02:54:12.559Z,17.87
2023-03-26T02:56:40.952Z,11.13
2023-03-26T02:59:09.324Z,9.37
2023-03-26T03:01:42.843Z,10.43
2023-03-26T03:04:12.545Z,12.33
2023-03-26T03:06:41.456Z,10.33
2023-03-26T03:09:09.917Z,5.03
2023-03-26T03:11:38.712Z,9.53
2023-03-26T03:14:07.266Z,10.80
2023-03-26T03:16:35.887Z,7.20
2023-03-26T03:19:06.226Z,6.63
2023-03-26T03:21:36.050Z,9.07
2023-03-26T03:24:04.298Z,8.63
2023-03-26T03:26:34.098Z,13.47
2023-03-26T03:29:02.325Z,15.97
2023-03-26T03:31:30.727Z,10.73
2023-03-26T03:33:59.052Z,13.27
2023-03-26T03:36:30.368Z,17.40
2023-03-26T03:39:02.418Z,11.30
2023-03-26T03:41:31.161Z,12.47
2023-03-26T03:44:01.756Z,12.37
2023-03-26T03:46:30.220Z,10.13
2023-03-26T03:48:58.429Z,12.83
2023-03-26T03:51:26.750Z,8.43
2023-03-26T03:53:55.834Z,11.60
2023-03-26T03:56:26.202Z,10.57
2023-03-26T03:58:54.467Z,10.47
2023-03-26T04:01:23.543Z,9.83
2023-03-26T04:03:51.937Z,7.77
2023-03-26T04:06:20.208Z,12.13
2023-03-26T04:08:48.439Z,14.10
2023-03-26T04:11:16.829Z,18.97
2023-03-26T04:13:46.440Z,12.57
2023-03-26T04:16:14.820Z,11.87
2023-03-26T04:18:45.073Z,13.70
2023-03-26T04:21:16.011Z,9.83
2023-03-26T04:23:44.331Z,9.60
2023-03-26T04:26:14.793Z,9.93
2023-03-26T04:28:46.479Z,7.83
2023-03-26T04:31:17.542Z,11.63
2023-03-26T04:33:47.436Z,9.50
2023-03-26T04:36:16.406Z,16.90
2023-03-26T04:38:45.992Z,9.00
2023-03-26T04:41:14.626Z,14.00
2023-03-26T04:43:47.311Z,10.13
2023-03-26T04:46:18.500Z,17.80
2023-03-26T04:48:46.866Z,7.47
2023-03-26T04:51:18.086Z,6.70
2023-03-26T04:53:49.257Z,9.87
2023-03-26T04:56:32.293Z,10.63
2023-03-26T04:59:01.505Z,5.73
2023-03-26T05:01:31.182Z,11.17
2023-03-26T05:03:59.728Z,14.03
2023-03-26T05:06:28.920Z,9.97
2023-03-26T05:08:57.262Z,15.90
2023-03-26T05:11:25.544Z,7.87
2023-03-26T05:13:53.836Z,7.00
2023-03-26T05:16:22.483Z,19.10
2023-03-26T05:18:52.652Z,5.60
2023-03-26T05:21:20.964Z,6.10
2023-03-26T05:23:49.280Z,13.50
2023-03-26T05:26:17.573Z,12.17
2023-03-26T05:28:45.876Z,8.67
2023-03-26T05:31:15.535Z,10.87
2023-03-26T05:33:43.990Z,11.27
2023-03-26T05:36:15.191Z,9.50
2023-03-26T05:38:47.664Z,8.97
2023-03-26T05:41:16.040Z,11.20
2023-03-26T05:43:44.826Z,7.70
2023-03-26T05:46:13.370Z,10.43
2023-03-26T05:48:41.685Z,10.33
2023-03-26T05:51:10.119Z,8.67
2023-03-26T05:53:39.778Z,9.13
2023-03-26T05:56:08.317Z,9.80
2023-03-26T05:58:38.014Z,5.33
2023-03-26T06:01:08.441Z,5.47
2023-03-26T06:03:37.635Z,7.73
2023-03-26T06:06:08.832Z,5.67
2023-03-26T06:08:37.120Z,12.10
2023-03-26T06:11:08.773Z,10.87
2023-03-26T06:13:37.089Z,12.80
2023-03-26T06:16:05.489Z,6.23
2023-03-26T06:18:33.841Z,10.63
2023-03-26T06:21:02.205Z,7.70
2023-03-26T06:23:30.585Z,5.60
2023-03-26T06:25:59.086Z,6.30
2023-03-26T06:28:28.738Z,7.20
2023-03-26T06:31:01.097Z,7.47
2023-03-26T06:33:29.633Z,11.13
2023-03-26T06:35:57.957Z,11.23
2023-03-26T06:38:26.539Z,5.60
2023-03-26T06:40:55.140Z,9.73
2023-03-26T06:43:23.680Z,6.27
2023-03-26T06:45:56.854Z,9.57
2023-03-26T06:48:25.363Z,7.23
2023-03-26T06:50:53.725Z,8.00
2023-03-26T06:53:22.179Z,8.43
2023-03-26T06:55:50.504Z,5.07
2023-03-26T06:58:18.952Z,4.47
2023-03-26T07:00:47.447Z,6.50
2023-03-26T07:03:17.515Z,4.40
2023-03-26T07:05:46.030Z,7.50
2023-03-26T07:08:14.388Z,9.53
2023-03-26T07:10:42.638Z,5.53
2023-03-26T07:13:11.030Z,9.17
2023-03-26T07:15:39.390Z,4.87
2023-03-26T07:18:09.957Z,4.30
2023-03-26T07:20:40.554Z,7.50
2023-03-26T07:23:09.061Z,6.20
2023-03-26T07:25:40.344Z,5.00
2023-03-26T07:28:12.558Z,6.90
2023-03-26T07:30:47.722Z,5.10
2023-03-26T07:33:19.068Z,10.40
2023-03-26T07:35:52.084Z,6.07
2023-03-26T07:38:28.988Z,3.77
2023-03-26T07:41:01.185Z,8.53
2023-03-26T07:43:41.929Z,6.17
2023-03-26T07:46:12.302Z,6.33
2023-03-26T07:48:42.385Z,3.80
2023-03-26T07:51:13.060Z,7.60
2023-03-26T07:53:41.493Z,6.17
2023-03-26T07:56:13.225Z,7.80
2023-03-26T07:58:47.015Z,5.17
2023-03-26T08:01:17.691Z,5.90
2023-03-26T08:03:58.251Z,3.70
2023-03-26T08:06:35.254Z,4.43
2023-03-26T08:09:07.844Z,3.70
2023-03-26T08:11:40.611Z,6.20
2023-03-26T08:14:21.832Z,4.67
2023-03-26T08:16:52.890Z,6.90
2023-03-26T08:19:28.835Z,5.90
2023-03-26T08:22:01.263Z,4.20
2023-03-26T08:24:36.489Z,3.93
2023-03-26T08:27:08.723Z,5.40
2023-03-26T08:29:42.151Z,4.80
2023-03-26T08:32:13.677Z,4.70
2023-03-26T08:34:41.895Z,5.77
2023-03-26T08:37:11.523Z,3.90
2023-03-26T08:39:42.182Z,2.93
2023-03-26T08:42:29.290Z,3.33
2023-03-26T08:45:18.846Z,5.47
2023-03-26T08:48:11.285Z,4.90
2023-03-26T08:51:07.684Z,3.77
2023-03-26T08:53:53.656Z,4.17
2023-03-26T08:56:24.627Z,6.93
2023-03-26T08:59:16.431Z,5.37
2023-03-26T09:02:02.430Z,8.00
2023-03-26T09:04:51.404Z,3.87
2023-03-26T09:07:49.033Z,3.97
2023-03-26T09:10:48.026Z,6.43
2023-03-26T09:13:47.320Z,4.50
2023-03-26T09:16:29.123Z,3.77
2023-03-26T09:19:18.220Z,6.87
2023-03-26T09:21:57.223Z,8.90
2023-03-26T09:24:49.370Z,4.40
2023-03-26T09:27:29.397Z,7.07
2023-03-26T09:30:07.570Z,5.20
2023-03-26T09:32:44.584Z,4.67
2023-03-26T09:35:33.280Z,7.43
2023-03-26T09:38:03.414Z,5.97
2023-03-26T09:40:38.801Z,3.80
2023-03-26T09:43:24.158Z,4.60
2023-03-26T09:46:01.368Z,4.27
2023-03-26T09:48:47.493Z,3.00
2023-03-26T09:51:27.779Z,3.70
2023-03-26T09:54:07.419Z,3.73
2023-03-26T09:56:41.407Z,3.17
2023-03-26T09:59:21.704Z,3.10
2023-03-26T10:01:54.114Z,2.83
2023-03-26T10:04:46.194Z,2.80
2023-03-26T10:07:23.340Z,3.40
2023-03-26T10:09:56.614Z,4.10
2023-03-26T10:12:29.108Z,3.20
2023-03-26T10:15:04.638Z,2.67
2023-03-26T10:17:42.688Z,2.20
2023-03-26T10:20:21.611Z,3.57
2023-03-26T10:22:54.571Z,2.00
2023-03-26T10:25:43.631Z,2.97
2023-03-26T10:28:18.344Z,2.10
2023-03-26T10:30:53.775Z,1.90
2023-03-26T10:33:30.071Z,2.00
2023-03-26T10:36:04.462Z,2.10
2023-03-26T10:38:38.869Z,2.40
2023-03-26T10:41:10.680Z,2.40
2023-03-26T10:43:57.801Z,3.03
2023-03-26T10:46:43.228Z,2.60
2023-03-26T10:49:34.987Z,2.60
2023-03-26T10:52:04.006Z,2.63
2023-03-26T10:54:37.754Z,1.90
2023-03-26T10:57:07.975Z,2.40
2023-03-26T10:59:36.291Z,2.20
2023-03-26T11:02:30.021Z,2.20
2023-03-26T11:05:05.002Z,2.10
2023-03-26T11:07:37.441Z,2.37
2023-03-26T11:10:08.188Z,2.63
2023-03-26T11:12:42.051Z,2.50
2023-03-26T11:15:17.550Z,2.33
2023-03-26T11:17:52.165Z,2.40
2023-03-26T11:20:22.660Z,1.93
2023-03-26T11:22:59.447Z,2.00
2023-03-26T11:25:36.714Z,2.33
2023-03-26T11:28:12.220Z,2.60
2023-03-26T11:30:46.363Z,3.00
2023-03-26T11:33:19.052Z,3.13
2023-03-26T11:35:48.873Z,2.63
2023-03-26T11:38:20.670Z,3.23
2023-03-26T11:40:52.567Z,2.30
2023-03-26T11:43:23.889Z,3.47
2023-03-26T11:45:53.841Z,3.80
2023-03-26T11:48:27.679Z,3.30
2023-03-26T11:50:59.093Z,4.00
2023-03-26T11:53:30.554Z,3.53
2023-03-26T11:56:02.505Z,3.30
2023-03-26T11:58:33.926Z,4.40
2023-03-26T12:01:04.960Z,3.57
2023-03-26T12:03:34.642Z,4.30
2023-03-26T12:06:03.720Z,8.80
2023-03-26T12:08:33.906Z,3.73
2023-03-26T12:11:04.763Z,3.10
2023-03-26T12:13:37.701Z,5.30
2023-03-26T12:16:14.132Z,4.57
2023-03-26T12:18:44.674Z,3.40
2023-03-26T12:21:14.714Z,3.30
2023-03-26T12:23:52.643Z,3.00
2023-03-26T12:26:22.045Z,2.60
2023-03-26T12:28:52.243Z,3.00
2023-03-26T12:31:21.057Z,2.77
2023-03-26T12:34:07.526Z,3.33
2023-03-26T12:36:36.543Z,3.27
2023-03-26T12:40:09.552Z,3.40
2023-03-26T12:44:43.078Z,3.60
2023-03-26T12:45:15.737Z,4.30
2023-03-26T12:47:59.835Z,2.80
2023-03-26T12:50:35.857Z,4.90
2023-03-26T12:53:10.298Z,4.80
2023-03-26T12:55:42.245Z,3.53
2023-03-26T12:58:23.760Z,4.37
2023-03-26T13:00:57.709Z,2.60
2023-03-26T13:03:41.787Z,2.40
2023-03-26T13:06:17.717Z,3.90
2023-03-26T13:08:57.508Z,2.67
2023-03-26T13:11:31.304Z,3.90
2023-03-26T13:14:25.518Z,3.80
2023-03-26T13:16:57.111Z,2.90
2023-03-26T13:19:28.831Z,3.40
2023-03-26T13:22:03.107Z,3.27
2023-03-26T13:24:36.451Z,2.90
2023-03-26T13:27:09.136Z,3.53
2023-03-26T13:29:42.436Z,4.20
2023-03-26T13:32:16.368Z,3.07
2023-03-26T13:34:48.684Z,4.13
2023-03-26T13:37:22.009Z,3.77
2023-03-26T13:39:55.552Z,4.40
2023-03-26T13:42:28.862Z,3.70
2023-03-26T13:45:05.716Z,2.50
2023-03-26T13:47:36.806Z,4.47
2023-03-26T13:50:07.533Z,3.30
2023-03-26T13:52:41.085Z,3.43
2023-03-26T13:55:20.402Z,3.27
2023-03-26T13:57:51.091Z,4.20
2023-03-26T14:00:22.151Z,3.00
2023-03-26T14:02:54.255Z,3.50
2023-03-26T14:05:24.892Z,3.63
2023-03-26T14:07:57.251Z,3.00
2023-03-26T14:10:27.652Z,2.70
2023-03-26T14:12:57.869Z,3.30
2023-03-26T14:15:28.791Z,5.03
2023-03-26T14:17:59.941Z,4.50
2023-03-26T14:20:34.494Z,3.20
2023-03-26T14:23:08.034Z,4.30
2023-03-26T14:25:47.069Z,4.33
2023-03-26T14:28:26.003Z,2.50
2023-03-26T14:31:03.922Z,3.60
2023-03-26T14:33:54.718Z,3.13
2023-03-26T14:36:34.696Z,3.37
2023-03-26T14:39:15.349Z,2.87
2023-03-26T14:41:48.710Z,2.13
2023-03-26T14:44:48.901Z,2.60
2023-03-26T14:47:19.040Z,3.50
2023-03-26T14:50:08.540Z,2.80
2023-03-26T14:52:42.446Z,3.27
2023-03-26T14:55:16.904Z,3.33
2023-03-26T14:57:56.065Z,5.30
2023-03-26T15:00:45.890Z,2.80
2023-03-26T15:03:48.648Z,4.97
2023-03-26T15:06:28.223Z,3.30
2023-03-26T15:09:12.731Z,2.93
2023-03-26T15:11:47.459Z,2.37
2023-03-26T15:14:35.817Z,2.63
2023-03-26T15:17:31.239Z,3.33
2023-03-26T15:20:26.743Z,4.17
2023-03-26T15:23:18.968Z,4.10
2023-03-26T15:26:03.776Z,2.20
2023-03-26T15:28:50.685Z,3.13
2023-03-26T15:31:41.537Z,3.60
2023-03-26T15:34:25.974Z,4.00
2023-03-26T15:37:01.583Z,2.93
2023-03-26T15:39:44.060Z,3.10
2023-03-26T15:42:31.159Z,4.27
2023-03-26T15:45:03.316Z,5.43
2023-03-26T15:47:55.706Z,3.57
2023-03-26T15:50:32.620Z,4.50
2023-03-26T15:53:06.551Z,3.97
2023-03-26T15:55:37.520Z,3.43
2023-03-26T15:58:11.444Z,3.27
2023-03-26T16:00:44.898Z,4.73
2023-03-26T16:03:31.856Z,2.73
2023-03-26T16:06:21.818Z,4.60
2023-03-26T16:08:56.968Z,2.63
2023-03-26T16:11:43.724Z,4.37
2023-03-26T16:14:18.367Z,3.80
2023-03-26T16:16:50.668Z,3.53
2023-03-26T16:19:36.151Z,5.43
2023-03-26T16:22:07.516Z,5.03
2023-03-26T16:24:37.181Z,5.27
2023-03-26T16:27:23.806Z,4.30
2023-03-26T16:30:07.050Z,4.60
2023-03-26T16:32:36.468Z,4.63
2023-03-26T16:35:05.898Z,5.20
2023-03-26T16:37:43.138Z,6.10
2023-03-26T16:40:31.433Z,6.17
2023-03-26T16:43:03.580Z,6.90
2023-03-26T16:45:34.639Z,4.57
2023-03-26T16:48:08.573Z,3.33
2023-03-26T16:50:42.805Z,7.10
2023-03-26T16:53:24.102Z,4.63
2023-03-26T16:55:56.815Z,5.63
2023-03-26T16:58:31.543Z,4.60
2023-03-26T17:01:08.702Z,3.77
2023-03-26T17:03:46.582Z,3.97
2023-03-26T17:06:23.190Z,4.90
2023-03-26T17:08:58.469Z,4.20
2023-03-26T17:11:30.734Z,2.47
2023-03-26T17:14:07.470Z,4.23
2023-03-26T17:16:37.103Z,3.10
2023-03-26T17:19:08.530Z,3.70
2023-03-26T17:21:55.542Z,4.13
2023-03-26T17:24:37.107Z,3.87
2023-03-26T17:27:10.730Z,3.37
2023-03-26T17:29:53.110Z,3.73
2023-03-26T17:32:21.495Z,4.90
2023-03-26T17:34:57.325Z,3.20
2023-03-26T17:37:52.616Z,3.23
2023-03-26T17:40:38.745Z,3.83
2023-03-26T17:43:30.227Z,3.60
2023-03-26T17:46:04.103Z,8.63
2023-03-26T17:48:35.944Z,3.20
2023-03-26T17:51:05.035Z,3.73
2023-03-26T17:53:36.341Z,6.97
2023-03-26T17:56:06.472Z,3.87
2023-03-26T17:58:37.418Z,4.33
2023-03-26T18:01:15.782Z,4.07
2023-03-26T18:03:49.313Z,9.03
2023-03-26T18:06:20.623Z,5.07
2023-03-26T18:09:06.919Z,4.20
2023-03-26T18:11:52.134Z,5.97
2023-03-26T18:14:36.341Z,11.17
2023-03-26T18:17:08.232Z,6.67
2023-03-26T18:19:47.734Z,5.30
2023-03-26T18:22:27.660Z,5.97
2023-03-26T18:24:59.588Z,8.90
2023-03-26T18:27:36.177Z,6.27
2023-03-26T18:30:15.637Z,7.30
2023-03-26T18:35:29.220Z,4.10
2023-03-26T18:38:00.296Z,6.23
2023-03-26T18:40:41.323Z,17.70
2023-03-26T18:43:22.245Z,5.17
2023-03-26T18:46:00.813Z,5.87
2023-03-26T18:48:31.523Z,8.73
2023-03-26T18:51:05.036Z,9.10
2023-03-26T18:53:39.381Z,10.43
2023-03-26T18:56:20.422Z,7.00
2023-03-26T18:58:51.963Z,5.37
2023-03-26T19:01:25.766Z,11.33
2023-03-26T19:03:56.110Z,3.27
2023-03-26T19:06:25.900Z,6.67
2023-03-26T19:08:54.505Z,6.87
2023-03-26T19:11:22.859Z,7.83
2023-03-26T19:14:03.333Z,5.80
2023-03-26T19:16:33.929Z,4.90
2023-03-26T19:19:04.388Z,5.67
2023-03-26T19:21:34.021Z,10.00
2023-03-26T19:24:03.704Z,5.23
2023-03-26T19:26:32.461Z,9.00
2023-03-26T19:29:01.060Z,4.87
2023-03-26T19:31:33.667Z,5.33
2023-03-26T19:34:02.824Z,8.23
2023-03-26T19:36:34.519Z,4.63
2023-03-26T19:39:14.687Z,4.83
2023-03-26T19:41:45.709Z,6.97
2023-03-26T19:44:26.615Z,4.43
2023-03-26T19:47:02.863Z,6.77
2023-03-26T19:49:34.320Z,6.27
2023-03-26T19:52:14.875Z,4.83
2023-03-26T19:55:00.190Z,7.83
2023-03-26T19:57:29.737Z,4.63
2023-03-26T19:59:58.389Z,5.50
2023-03-26T20:02:27.009Z,8.33
2023-03-26T20:04:55.331Z,4.77
2023-03-26T20:07:35.578Z,6.97
2023-03-26T20:10:05.599Z,7.43
2023-03-26T20:12:36.186Z,8.43
2023-03-26T20:15:07.389Z,5.97
2023-03-26T20:17:50.169Z,3.70
2023-03-26T20:20:18.644Z,9.87
2023-03-26T20:22:49.481Z,4.40
2023-03-26T20:25:19.950Z,3.00
2023-03-26T20:27:48.853Z,8.93
2023-03-26T20:30:27.509Z,5.13
2023-03-26T20:33:13.388Z,3.30
2023-03-26T20:36:07.331Z,17.10
2023-03-26T20:38:39.864Z,11.67
2023-03-26T20:41:08.525Z,10.23
2023-03-26T20:43:37.326Z,3.50
2023-03-26T20:46:05.659Z,6.30
2023-03-26T20:48:35.301Z,10.10
2023-03-26T20:51:04.775Z,6.13
2023-03-26T20:53:33.355Z,9.40
2023-03-26T20:58:37.073Z,6.50
2023-03-26T21:01:05.680Z,7.20
2023-03-26T21:03:34.353Z,8.83
2023-03-26T21:06:02.669Z,14.47
2023-03-26T21:08:35.459Z,5.17
2023-03-26T21:11:04.761Z,3.20
2023-03-26T21:13:35.642Z,3.23
2023-03-26T21:16:06.460Z,6.53
2023-03-26T21:18:35.272Z,5.90
2023-03-26T21:21:17.982Z,11.00
2023-03-26T21:23:56.708Z,9.60
2023-03-26T21:26:27.371Z,6.07
2023-03-26T21:28:55.684Z,9.63
2023-03-26T21:31:26.494Z,5.53
2023-03-26T21:33:55.197Z,4.50
2023-03-26T21:36:23.968Z,12.83
2023-03-26T21:38:54.673Z,7.33
2023-03-26T21:41:27.674Z,5.90
2023-03-26T21:43:56.008Z,6.27
2023-03-26T21:46:26.080Z,8.43
2023-03-26T21:48:54.583Z,5.90
2023-03-26T21:51:23.110Z,5.00
2023-03-26T21:53:51.686Z,5.63
2023-03-26T21:56:23.007Z,12.53
2023-03-26T21:58:55.795Z,4.23
2023-03-26T22:01:29.909Z,8.57
2023-03-26T22:04:03.249Z,6.13
2023-03-26T22:06:33.759Z,4.07
2023-03-26T22:09:02.215Z,5.40
2023-03-26T22:11:30.695Z,15.67
2023-03-26T22:13:59.406Z,8.63
2023-03-26T22:16:29.096Z,2.83
2023-03-26T22:18:57.351Z,2.10
2023-03-26T22:21:25.674Z,8.83
2023-03-26T22:23:54.165Z,8.93
2023-03-26T22:26:23.190Z,4.40
2023-03-26T22:28:51.849Z,3.80
2023-03-26T22:31:20.312Z,16.77
2023-03-26T22:33:49.938Z,5.30
2023-03-26T22:36:23.162Z,4.37
2023-03-26T22:38:53.665Z,12.23
2023-03-26T22:41:22.157Z,3.37
2023-03-26T22:43:52.045Z,4.87
2023-03-26T22:46:20.640Z,5.63
2023-03-26T22:48:51.116Z,16.20
2023-03-26T22:51:19.991Z,6.43
2023-03-26T22:53:48.208Z,3.90
2023-03-26T22:56:17.151Z,5.63
2023-03-26T22:58:48.283Z,5.10
2023-03-26T23:01:18.766Z,18.53
2023-03-26T23:03:47.524Z,14.83
2023-03-26T23:06:17.319Z,2.10
2023-03-26T23:08:46.237Z,9.27
2023-03-26T23:11:15.258Z,9.93
2023-03-26T23:13:43.785Z,11.00
2023-03-26T23:16:12.492Z,6.50
2023-03-26T23:18:41.079Z,3.40
2023-03-26T23:21:14.339Z,4.00
2023-03-26T23:23:44.248Z,11.10
2023-03-26T23:26:12.551Z,2.87
2023-03-26T23:28:40.975Z,6.10
2023-03-26T23:31:10.341Z,9.43
2023-03-26T23:33:39.300Z,2.67
2023-03-26T23:36:09.327Z,9.27
2023-03-26T23:38:43.803Z,9.63
2023-03-26T23:41:15.159Z,2.90
2023-03-26T23:43:54.536Z,12.30
2023-03-26T23:46:23.736Z,6.63
2023-03-26T23:48:52.505Z,5.03
2023-03-26T23:51:21.214Z,8.63
2023-03-26T23:53:49.919Z,2.53
2023-03-26T23:56:20.162Z,2.20
2023-03-26T23:58:48.866Z,8.03
